createdAt,value
2019-04-22T00:01:59.380Z,54.03
2019-04-22T00:04:42.145Z,53.91
2019-04-22T00:07:15.623Z,53.42
2019-04-22T00:09:53.011Z,54.56
2019-04-22T00:12:19.843Z,53.85
2019-04-22T00:14:47.990Z,54.81
2019-04-22T00:17:30.372Z,53.25
2019-04-22T00:20:00.454Z,53.47
2019-04-22T00:22:22.237Z,53.83
2019-04-22T00:24:55.462Z,53.17
2019-04-22T00:27:28.157Z,53.31
2019-04-22T00:30:13.823Z,54.49
2019-04-22T00:32:32.276Z,52.59
2019-04-22T00:35:04.183Z,52.72
2019-04-22T00:37:40.161Z,53.43
2019-04-22T00:40:07.136Z,53.13
2019-04-22T00:42:37.509Z,52.52
2019-04-22T00:45:06.135Z,52.76
2019-04-22T00:55:11.881Z,53.89
2019-04-22T00:57:41.805Z,52.77
2019-04-22T01:00:11.565Z,53.70
2019-04-22T01:02:46.188Z,54.13
2019-04-22T01:05:17.014Z,54.58
2019-04-22T01:07:35.618Z,53.31
2019-04-22T01:10:11.562Z,52.98
2019-04-22T01:12:39.997Z,54.37
2019-04-22T01:15:21.497Z,54.46
2019-04-22T01:17:44.955Z,53.52
2019-04-22T01:20:38.437Z,54.04
2019-04-22T01:22:38.126Z,53.86
2019-04-22T01:25:08.847Z,53.79
2019-04-22T01:27:41.564Z,53.94
2019-04-22T01:30:07.144Z,54.27
2019-04-22T01:32:31.078Z,55.46
2019-04-22T01:35:08.455Z,54.91
2019-04-22T01:37:45.745Z,55.58
2019-04-22T01:40:24.131Z,56.28
2019-04-22T01:42:55.932Z,56.81
2019-04-22T01:45:26.744Z,58.56
2019-04-22T01:47:48.871Z,58.23
2019-04-22T01:50:18.959Z,56.67
2019-04-22T01:52:59.168Z,57.75
2019-04-22T01:55:32.347Z,57.59
2019-04-22T01:57:53.331Z,57.38
2019-04-22T02:00:16.440Z,57.86
2019-04-22T02:02:57.505Z,58.31
2019-04-22T02:05:22.866Z,58.06
2019-04-22T02:07:56.101Z,57.75
2019-04-22T02:10:34.528Z,59.08
2019-04-22T02:13:03.085Z,58.83
2019-04-22T02:15:31.636Z,58.92
2019-04-22T02:18:01.239Z,59.29
2019-04-22T02:20:31.112Z,60.32
2019-04-22T02:23:43.286Z,61.10
2019-04-22T02:25:56.445Z,62.05
2019-04-22T02:28:25.646Z,62.59
2019-04-22T02:31:13.891Z,61.83
2019-04-22T02:36:08.101Z,62.12
2019-04-22T02:38:47.069Z,61.02
2019-04-22T02:43:51.855Z,59.99
2019-04-22T02:46:13.455Z,59.25
2019-04-22T02:48:48.247Z,59.73
2019-04-22T02:51:06.090Z,59.89
2019-04-22T02:54:02.081Z,58.24
2019-04-22T02:56:12.246Z,57.73
2019-04-22T03:01:06.104Z,58.43
2019-04-22T03:06:24.454Z,58.58
2019-04-22T03:11:16.153Z,58.79
2019-04-22T03:13:47.359Z,59.34
2019-04-22T03:18:46.901Z,59.19
2019-04-22T03:21:02.343Z,59.56
2019-04-22T03:28:51.706Z,60.69
2019-04-22T03:31:55.138Z,60.29
2019-04-22T03:34:37.643Z,60.69
2019-04-22T03:41:45.060Z,61.43
2019-04-22T03:44:10.526Z,61.54
2019-04-22T03:46:35.973Z,61.91
2019-04-22T03:49:12.159Z,61.40
2019-04-22T03:51:38.922Z,61.32
2019-04-22T03:54:11.047Z,61.22
2019-04-22T03:59:11.510Z,61.47
2019-04-22T04:01:36.975Z,61.94
2019-04-22T04:04:09.360Z,61.68
2019-04-22T04:06:43.223Z,61.32
2019-04-22T04:09:09.549Z,61.43
2019-04-22T04:11:49.927Z,61.09
2019-04-22T04:16:45.939Z,60.81
2019-04-22T04:19:08.405Z,60.07
2019-04-22T04:21:32.934Z,60.06
2019-04-22T04:24:32.322Z,59.92
2019-04-22T04:26:46.019Z,60.01
2019-04-22T04:29:26.047Z,59.68
2019-04-22T04:31:48.438Z,59.72
2019-04-22T04:34:28.297Z,59.94
2019-04-22T04:36:37.145Z,59.87
2019-04-22T04:39:07.277Z,59.57
2019-04-22T04:44:10.827Z,59.17
2019-04-22T04:46:47.403Z,58.85
2019-04-22T04:49:23.994Z,58.65
2019-04-22T04:51:44.000Z,58.21
2019-04-22T05:01:45.084Z,56.97
2019-04-22T05:04:15.056Z,57.12
2019-04-22T05:12:03.447Z,56.96
2019-04-22T05:14:09.544Z,56.29
2019-04-22T05:16:51.549Z,54.42
2019-04-22T05:21:38.528Z,53.52
2019-04-22T05:24:19.380Z,54.30
2019-04-22T05:26:39.761Z,52.68
2019-04-22T05:29:14.479Z,51.91
2019-04-22T05:31:49.623Z,51.32
2019-04-22T05:34:08.229Z,49.43
2019-04-22T05:36:40.311Z,50.36
2019-04-22T05:39:11.135Z,49.63
2019-04-22T05:41:43.367Z,49.58
2019-04-22T05:46:42.210Z,49.85
2019-04-22T05:49:22.529Z,48.86
2019-04-22T05:51:41.979Z,48.38
2019-04-22T05:54:14.492Z,47.97
2019-04-22T05:56:40.967Z,48.20
2019-04-22T05:59:32.638Z,47.22
2019-04-22T06:01:52.050Z,46.57
2019-04-22T06:04:14.748Z,46.18
2019-04-22T06:06:42.944Z,46.28
2019-04-22T06:09:19.142Z,45.82
2019-04-22T06:11:36.096Z,43.80
2019-04-22T06:14:20.037Z,44.17
2019-04-22T06:17:02.000Z,43.17
2019-04-22T06:19:38.644Z,42.87
2019-04-22T06:22:00.808Z,42.71
2019-04-22T06:27:08.313Z,41.65
2019-04-22T06:29:25.062Z,41.88
2019-04-22T06:32:18.566Z,41.87
2019-04-22T06:34:30.598Z,40.99
2019-04-22T06:42:01.130Z,41.46
2019-04-22T06:44:29.782Z,40.82
2019-04-22T06:47:27.405Z,40.55
2019-04-22T06:49:38.375Z,40.43
2019-04-22T06:52:09.151Z,39.59
2019-04-22T06:54:32.885Z,38.15
2019-04-22T06:59:33.078Z,33.90
2019-04-22T07:02:10.057Z,31.24
2019-04-22T07:04:33.855Z,30.27
2019-04-22T07:07:08.400Z,28.34
2019-04-22T07:09:42.788Z,28.99
2019-04-22T07:12:11.532Z,28.08
2019-04-22T07:14:35.517Z,27.06
2019-04-22T07:17:07.321Z,27.06
2019-04-22T07:19:41.062Z,28.15
2019-04-22T07:22:13.841Z,27.13
2019-04-22T07:27:12.889Z,25.24
2019-04-22T07:29:40.381Z,24.62
2019-04-22T07:32:47.773Z,24.71
2019-04-22T07:34:40.755Z,24.98
2019-04-22T07:37:24.210Z,24.25
2019-04-22T07:39:40.989Z,22.99
2019-04-22T07:42:12.056Z,24.77
2019-04-22T07:44:45.149Z,23.50
2019-04-22T07:47:18.833Z,23.38
2019-04-22T07:49:48.941Z,22.72
2019-04-22T07:52:21.152Z,23.09
2019-04-22T07:54:46.758Z,21.57
2019-04-22T07:57:21.278Z,20.77
2019-04-22T07:59:52.394Z,20.14
2019-04-22T08:02:14.578Z,20.23
2019-04-22T08:05:01.952Z,19.97
2019-04-22T08:07:18.324Z,21.05
2019-04-22T08:10:02.991Z,20.03
2019-04-22T08:12:18.814Z,19.55
2019-04-22T08:14:55.137Z,20.11
2019-04-22T08:17:46.551Z,20.08
2019-04-22T08:19:57.837Z,19.61
2019-04-22T08:22:20.712Z,19.70
2019-04-22T08:24:57.834Z,19.46
2019-04-22T08:27:22.529Z,18.48
2019-04-22T08:30:02.133Z,18.19
2019-04-22T08:32:28.609Z,18.73
2019-04-22T08:34:55.645Z,18.74
2019-04-22T08:40:03.591Z,17.20
2019-04-22T08:42:35.175Z,18.20
2019-04-22T08:45:10.657Z,17.95
2019-04-22T08:47:32.279Z,17.11
2019-04-22T08:50:04.847Z,17.31
2019-04-22T08:55:07.797Z,17.22
2019-04-22T09:00:02.872Z,16.83
2019-04-22T09:05:01.507Z,18.43
2019-04-22T09:07:40.729Z,17.62
2019-04-22T09:10:05.215Z,16.92
2019-04-22T09:15:08.634Z,17.37
2019-04-22T09:17:34.911Z,16.47
2019-04-22T09:20:08.883Z,16.66
2019-04-22T09:22:36.266Z,16.23
2019-04-22T09:25:26.951Z,16.23
2019-04-22T09:30:15.135Z,14.88
2019-04-22T09:35:09.768Z,15.21
2019-04-22T09:42:44.026Z,15.35
2019-04-22T09:45:11.604Z,15.99
2019-04-22T09:47:53.835Z,14.96
2019-04-22T09:50:16.405Z,14.95
2019-04-22T09:52:51.435Z,15.31
2019-04-22T09:57:44.954Z,15.93
2019-04-22T10:00:13.922Z,16.28
2019-04-22T10:02:48.451Z,15.04
2019-04-22T10:07:50.820Z,14.20
2019-04-22T10:10:17.123Z,14.44
2019-04-22T10:13:08.540Z,13.77
2019-04-22T10:15:18.606Z,13.97
2019-04-22T10:17:54.480Z,13.85
2019-04-22T10:20:22.242Z,13.44
2019-04-22T10:23:05.892Z,12.97
2019-04-22T10:25:21.577Z,12.74
2019-04-22T10:27:55.226Z,11.91
2019-04-22T10:30:32.148Z,13.07
2019-04-22T10:33:02.796Z,13.87
2019-04-22T10:35:15.486Z,13.28
2019-04-22T10:37:40.660Z,12.72
2019-04-22T10:40:19.613Z,12.96
2019-04-22T10:42:49.495Z,12.31
2019-04-22T10:45:18.649Z,12.05
2019-04-22T10:47:48.002Z,11.57
2019-04-22T10:50:18.592Z,13.20
2019-04-22T10:52:47.754Z,13.85
2019-04-22T10:55:17.291Z,12.48
2019-04-22T10:57:46.515Z,14.08
2019-04-22T11:00:15.850Z,13.38
2019-04-22T11:02:45.721Z,12.67
2019-04-22T11:05:14.688Z,11.64
2019-04-22T11:07:51.450Z,11.72
2019-04-22T11:10:29.093Z,12.64
2019-04-22T11:12:45.388Z,12.99
2019-04-22T11:15:15.840Z,12.18
2019-04-22T11:17:45.120Z,12.15
2019-04-22T11:20:15.555Z,11.45
2019-04-22T11:22:44.739Z,11.51
2019-04-22T11:25:13.903Z,11.28
2019-04-22T11:27:44.388Z,11.55
2019-04-22T11:30:18.172Z,11.78
2019-04-22T11:32:44.743Z,12.49
2019-04-22T11:35:13.971Z,11.47
2019-04-22T11:37:42.793Z,11.25
2019-04-22T11:40:29.812Z,11.15
2019-04-22T11:42:54.390Z,11.50
2019-04-22T11:45:24.325Z,14.82
2019-04-22T11:47:53.270Z,15.51
2019-04-22T11:50:24.216Z,14.91
2019-04-22T11:52:53.187Z,15.67
2019-04-22T11:55:22.711Z,16.53
2019-04-22T11:57:51.987Z,15.57
2019-04-22T12:00:27.026Z,14.98
2019-04-22T12:02:54.819Z,16.03
2019-04-22T12:05:23.832Z,15.83
2019-04-22T12:07:53.194Z,14.50
2019-04-22T12:10:33.281Z,16.96
2019-04-22T12:12:55.421Z,16.96
2019-04-22T12:15:24.726Z,17.05
2019-04-22T12:17:55.165Z,17.39
2019-04-22T12:20:25.489Z,18.37
2019-04-22T12:22:54.464Z,19.47
2019-04-22T12:25:34.742Z,18.62
2019-04-22T12:27:55.112Z,18.80
2019-04-22T12:30:25.622Z,19.41
2019-04-22T12:32:54.887Z,19.57
2019-04-22T12:35:24.320Z,19.67
2019-04-22T12:37:58.891Z,19.80
2019-04-22T12:40:33.808Z,19.38
2019-04-22T12:42:55.428Z,18.84
2019-04-22T12:45:24.666Z,16.83
2019-04-22T12:47:53.893Z,16.99
2019-04-22T12:50:28.318Z,18.29
2019-04-22T12:52:59.420Z,19.23
2019-04-22T12:55:25.837Z,20.57
2019-04-22T12:57:57.438Z,19.74
2019-04-22T13:00:27.471Z,19.28
2019-04-22T13:02:58.945Z,21.65
2019-04-22T13:05:29.103Z,21.97
2019-04-22T13:07:58.133Z,23.12
2019-04-22T13:10:39.098Z,23.77
2019-04-22T13:12:58.634Z,23.22
2019-04-22T13:15:28.849Z,22.67
2019-04-22T13:18:05.723Z,22.69
2019-04-22T13:20:28.328Z,22.72
2019-04-22T13:22:57.097Z,23.30
2019-04-22T13:25:28.425Z,24.11
2019-04-22T13:27:57.572Z,24.07
2019-04-22T13:30:28.403Z,24.61
2019-04-22T13:32:58.645Z,24.78
2019-04-22T13:35:28.103Z,24.46
2019-04-22T13:37:59.308Z,24.82
2019-04-22T13:40:28.714Z,25.48
2019-04-22T13:42:58.685Z,25.55
2019-04-22T13:45:27.870Z,26.30
2019-04-22T13:48:16.864Z,26.01
2019-04-22T13:51:00.962Z,25.66
2019-04-22T13:53:41.431Z,25.38
2019-04-22T13:55:59.269Z,25.59
2019-04-22T13:58:15.733Z,25.98
2019-04-22T14:00:34.587Z,25.86
2019-04-22T14:03:22.512Z,26.04
2019-04-22T14:05:55.768Z,26.62
2019-04-22T14:08:24.967Z,27.26
2019-04-22T14:10:54.439Z,27.68
2019-04-22T14:13:23.864Z,27.91
2019-04-22T14:15:52.963Z,28.44
2019-04-22T14:18:23.142Z,28.61
2019-04-22T14:20:52.068Z,28.86
2019-04-22T14:23:22.440Z,29.28
2019-04-22T14:25:52.800Z,29.63
2019-04-22T14:28:23.366Z,30.14
2019-04-22T14:30:52.677Z,30.20
2019-04-22T14:33:22.403Z,30.05
2019-04-22T14:35:52.732Z,30.07
2019-04-22T14:38:21.912Z,29.90
2019-04-22T14:40:51.919Z,30.43
2019-04-22T14:43:55.191Z,30.43
2019-04-22T14:46:20.485Z,30.33
2019-04-22T14:48:45.828Z,30.55
2019-04-22T14:51:11.650Z,30.25
2019-04-22T14:53:41.845Z,30.46
2019-04-22T14:55:52.936Z,30.54
2019-04-22T14:58:22.752Z,31.16
2019-04-22T15:00:53.716Z,31.18
2019-04-22T15:03:23.830Z,31.94
2019-04-22T15:05:52.662Z,32.47
2019-04-22T15:08:21.572Z,32.79
2019-04-22T15:10:51.654Z,33.37
2019-04-22T15:13:21.209Z,33.54
2019-04-22T15:15:53.406Z,33.64
2019-04-22T15:18:23.966Z,33.71
2019-04-22T15:21:00.736Z,33.84
2019-04-22T15:23:31.027Z,32.80
2019-04-22T15:25:59.802Z,32.54
2019-04-22T15:28:29.260Z,32.83
2019-04-22T15:30:59.366Z,33.05
2019-04-22T15:33:29.543Z,33.73
2019-04-22T15:35:59.044Z,34.26
2019-04-22T15:38:28.268Z,34.65
2019-04-22T15:40:58.672Z,34.79
2019-04-22T15:43:31.145Z,35.15
2019-04-22T15:46:00.490Z,35.63
2019-04-22T15:48:29.217Z,35.71
2019-04-22T15:50:58.744Z,36.07
2019-04-22T15:53:27.663Z,36.31
2019-04-22T15:55:56.681Z,36.69
2019-04-22T15:58:25.820Z,36.42
2019-04-22T16:01:08.137Z,36.61
2019-04-22T16:03:25.013Z,36.56
2019-04-22T16:05:54.426Z,36.86
2019-04-22T16:08:24.749Z,37.02
2019-04-22T16:10:53.832Z,37.38
2019-04-22T16:13:25.550Z,37.52
2019-04-22T16:15:54.321Z,37.78
2019-04-22T16:18:24.411Z,37.95
2019-04-22T16:20:54.322Z,38.48
2019-04-22T16:23:27.867Z,38.69
2019-04-22T16:25:56.709Z,38.50
2019-04-22T16:28:25.374Z,38.69
2019-04-22T16:30:55.323Z,39.02
2019-04-22T16:33:25.644Z,38.95
2019-04-22T16:35:55.063Z,39.27
2019-04-22T16:38:24.730Z,39.37
2019-04-22T16:40:54.717Z,39.33
2019-04-22T16:43:24.720Z,39.61
2019-04-22T16:45:53.899Z,39.75
2019-04-22T16:48:22.514Z,39.83
2019-04-22T16:50:52.698Z,40.02
2019-04-22T16:53:23.170Z,40.14
2019-04-22T16:55:52.984Z,40.27
2019-04-22T16:58:23.165Z,40.48
2019-04-22T17:00:52.551Z,40.68
2019-04-22T17:03:26.863Z,41.28
2019-04-22T17:06:13.860Z,41.13
2019-04-22T17:08:42.730Z,41.46
2019-04-22T17:11:11.755Z,41.67
2019-04-22T17:13:42.457Z,42.09
2019-04-22T17:16:11.940Z,41.82
2019-04-22T17:18:41.309Z,42.29
2019-04-22T17:21:11.073Z,42.25
2019-04-22T17:23:41.362Z,42.58
2019-04-22T17:26:12.551Z,42.78
2019-04-22T17:28:41.676Z,43.18
2019-04-22T17:31:10.898Z,43.48
2019-04-22T17:33:41.102Z,43.77
2019-04-22T17:36:11.799Z,44.02
2019-04-22T17:38:48.705Z,44.28
2019-04-22T17:41:22.022Z,44.60
2019-04-22T17:44:04.827Z,44.66
2019-04-22T17:46:44.524Z,45.01
2019-04-22T17:49:35.639Z,45.19
2019-04-22T17:52:17.682Z,45.34
2019-04-22T17:54:42.127Z,45.55
2019-04-22T17:57:09.521Z,45.85
2019-04-22T17:59:45.238Z,45.72
2019-04-22T18:02:11.168Z,45.80
2019-04-22T18:04:29.099Z,46.35
2019-04-22T18:07:27.951Z,46.29
2019-04-22T18:10:20.875Z,46.06
2019-04-22T18:12:25.782Z,46.23
2019-04-22T18:14:48.103Z,46.27
2019-04-22T18:17:17.345Z,46.40
2019-04-22T18:19:46.020Z,46.24
2019-04-22T18:22:12.289Z,46.39
2019-04-22T18:24:43.673Z,46.35
2019-04-22T18:27:34.792Z,46.46
2019-04-22T18:29:46.157Z,46.42
2019-04-22T18:32:10.126Z,46.41
2019-04-22T18:34:42.607Z,46.56
2019-04-22T18:37:16.699Z,46.71
2019-04-22T18:39:53.045Z,47.08
2019-04-22T18:42:17.941Z,47.17
2019-04-22T18:44:56.023Z,47.31
2019-04-22T18:47:18.837Z,47.54
2019-04-22T18:49:49.267Z,47.55
2019-04-22T18:52:31.885Z,47.85
2019-04-22T18:55:02.652Z,47.83
2019-04-22T18:57:45.068Z,48.11
2019-04-22T19:00:07.079Z,48.48
2019-04-22T19:02:37.616Z,48.66
2019-04-22T19:05:19.981Z,48.92
2019-04-22T19:08:06.931Z,49.29
2019-04-22T19:10:41.550Z,49.23
2019-04-22T19:13:22.257Z,49.54
2019-04-22T19:15:37.944Z,50.04
2019-04-22T19:18:12.717Z,50.32
2019-04-22T19:20:38.015Z,50.39
2019-04-22T19:23:08.879Z,50.76
2019-04-22T19:25:29.271Z,50.85
2019-04-22T19:28:14.186Z,51.28
2019-04-22T19:30:37.003Z,51.64
2019-04-22T19:33:13.844Z,51.62
2019-04-22T19:35:29.940Z,51.82
2019-04-22T19:38:00.100Z,52.26
2019-04-22T19:40:58.132Z,52.54
2019-04-22T19:43:15.403Z,52.90
2019-04-22T19:45:44.355Z,53.16
2019-04-22T19:48:27.172Z,53.39
2019-04-22T19:50:54.427Z,53.65
2019-04-22T19:53:17.808Z,53.80
2019-04-22T19:55:48.226Z,54.08
2019-04-22T19:58:17.714Z,54.30
2019-04-22T20:00:45.179Z,54.50
2019-04-22T20:03:29.628Z,54.82
2019-04-22T20:06:07.112Z,54.85
2019-04-22T20:08:34.199Z,55.09
2019-04-22T20:11:10.234Z,55.33
2019-04-22T20:13:41.390Z,55.44
2019-04-22T20:16:01.111Z,55.68
2019-04-22T20:18:48.659Z,55.84
2019-04-22T20:21:11.857Z,55.99
2019-04-22T20:23:35.119Z,56.37
2019-04-22T20:26:05.077Z,56.46
2019-04-22T20:28:44.910Z,56.56
2019-04-22T20:31:14.431Z,56.70
2019-04-22T20:33:44.491Z,56.80
2019-04-22T20:36:27.801Z,56.87
2019-04-22T20:38:43.811Z,57.11
2019-04-22T20:41:09.010Z,56.99
2019-04-22T20:43:46.939Z,56.99
2019-04-22T20:46:15.251Z,57.21
2019-04-22T20:48:50.277Z,57.46
2019-04-22T20:51:19.677Z,56.79
2019-04-22T20:53:50.011Z,56.93
2019-04-22T20:56:14.461Z,56.88
2019-04-22T20:58:46.537Z,56.68
2019-04-22T21:01:11.633Z,56.79
2019-04-22T21:03:37.389Z,56.58
2019-04-22T21:06:16.056Z,56.62
2019-04-22T21:08:52.353Z,56.89
2019-04-22T21:11:17.817Z,56.74
2019-04-22T21:13:48.616Z,56.92
2019-04-22T21:16:27.053Z,57.19
2019-04-22T21:18:46.232Z,57.19
2019-04-22T21:21:25.200Z,56.92
2019-04-22T21:23:45.776Z,56.83
2019-04-22T21:26:24.157Z,56.93
2019-04-22T21:28:53.829Z,56.83
2019-04-22T21:31:29.644Z,56.69
2019-04-22T21:33:59.729Z,56.85
2019-04-22T21:36:30.052Z,56.61
2019-04-22T21:38:53.224Z,56.57
2019-04-22T21:41:25.028Z,56.55
2019-04-22T21:43:58.221Z,56.61
2019-04-22T21:46:28.911Z,56.18
2019-04-22T21:49:04.029Z,56.24
2019-04-22T21:51:32.822Z,56.44
2019-04-22T21:54:04.248Z,56.42
2019-04-22T21:56:40.991Z,56.42
2019-04-22T21:59:07.941Z,56.58
2019-04-22T22:01:50.034Z,56.54
2019-04-22T22:04:15.210Z,56.34
2019-04-22T22:06:35.919Z,56.18
2019-04-22T22:09:15.534Z,55.76
2019-04-22T22:11:38.612Z,55.72
2019-04-22T22:14:13.589Z,55.77
2019-04-22T22:16:37.271Z,55.88
2019-04-22T22:19:11.131Z,56.44
2019-04-22T22:21:51.453Z,55.46
2019-04-22T22:24:18.522Z,55.49
2019-04-22T22:26:47.546Z,55.30
2019-04-22T22:29:32.147Z,55.75
2019-04-22T22:31:47.228Z,55.37
2019-04-22T22:34:16.633Z,55.17
2019-04-22T22:36:40.434Z,55.24
2019-04-22T22:39:11.434Z,55.45
2019-04-22T22:41:27.880Z,55.51
2019-04-22T22:44:03.202Z,55.62
2019-04-22T22:46:39.260Z,55.19
2019-04-22T22:49:23.702Z,55.72
2019-04-22T22:51:53.141Z,55.43
2019-04-22T22:54:25.144Z,55.20
2019-04-22T22:57:12.442Z,55.38
2019-04-22T22:59:25.196Z,55.49
2019-04-22T23:01:51.564Z,55.72
2019-04-22T23:04:23.368Z,55.13
2019-04-22T23:06:56.209Z,55.52
2019-04-22T23:09:19.201Z,55.81
2019-04-22T23:12:18.732Z,55.62
2019-04-22T23:14:23.293Z,55.76
2019-04-22T23:16:42.973Z,55.99
2019-04-22T23:19:04.476Z,55.90
2019-04-22T23:21:39.742Z,55.52
2019-04-22T23:24:22.666Z,55.36
2019-04-22T23:26:56.669Z,55.39
2019-04-22T23:29:25.376Z,55.12
2019-04-22T23:32:00.263Z,55.19
2019-04-22T23:34:26.609Z,55.58
2019-04-22T23:37:19.129Z,55.36
2019-04-22T23:42:41.412Z,55.45
2019-04-22T23:44:56.374Z,55.24
2019-04-22T23:47:24.307Z,55.33
2019-04-22T23:49:56.506Z,55.49
2019-04-22T23:52:30.485Z,55.69
2019-04-22T23:55:10.156Z,55.65
2019-04-22T23:57:55.556Z,55.93
